createdAt,value
2019-05-26T00:00:03.554Z,98
2019-05-26T00:01:03.228Z,96.6
2019-05-26T00:02:03.154Z,96.6
2019-05-26T00:03:03.730Z,95.9
2019-05-26T00:04:02.928Z,95.4
2019-05-26T00:05:02.543Z,94
2019-05-26T00:06:03.334Z,92.8
2019-05-26T00:07:02.900Z,93.3
2019-05-26T00:08:02.675Z,94
2019-05-26T00:09:03.626Z,94
2019-05-26T00:10:03.309Z,93.3
2019-05-26T00:11:01.582Z,92.1
2019-05-26T00:12:03.155Z,93.8
2019-05-26T00:13:02.815Z,93.5
2019-05-26T00:14:03.688Z,94.7
2019-05-26T00:15:03.208Z,96.1
2019-05-26T00:16:02.914Z,94.7
2019-05-26T00:17:03.416Z,94.9
2019-05-26T00:18:03.021Z,94.9
2019-05-26T00:19:02.515Z,96.6
2019-05-26T00:20:03.601Z,96.8
2019-05-26T00:21:03.145Z,97.5
2019-05-26T00:22:02.555Z,96.6
2019-05-26T00:23:03.277Z,96.3
2019-05-26T00:24:02.725Z,97.5
2019-05-26T00:25:03.513Z,98.9
2019-05-26T00:26:02.874Z,98
2019-05-26T00:27:02.701Z,97.3
2019-05-26T00:28:03.279Z,98.4
2019-05-26T00:29:02.751Z,97.3
2019-05-26T00:30:03.526Z,97
2019-05-26T00:31:03.006Z,98.9
2019-05-26T00:32:02.774Z,99.6
2019-05-26T00:33:03.598Z,100.5
2019-05-26T00:34:03.043Z,100.5
2019-05-26T00:35:02.700Z,101
2019-05-26T00:36:03.147Z,101.7
2019-05-26T00:37:02.912Z,101.5
2019-05-26T00:38:03.491Z,102.6
2019-05-26T00:39:03.249Z,103.6
2019-05-26T00:40:03.098Z,103.8
2019-05-26T00:41:02.618Z,103.1
2019-05-26T00:42:03.288Z,103.1
2019-05-26T00:43:02.942Z,102.4
2019-05-26T00:44:03.333Z,102.2
2019-05-26T00:45:03.413Z,101.9
2019-05-26T00:46:03.383Z,101.2
2019-05-26T00:47:03.350Z,100.8
2019-05-26T00:48:03.017Z,100.3
2019-05-26T00:49:02.719Z,100.5
2019-05-26T00:50:03.415Z,100.8
2019-05-26T00:51:03.229Z,98.9
2019-05-26T00:52:02.555Z,99.8
2019-05-26T00:53:03.237Z,100.3
2019-05-26T00:54:02.768Z,99.8
2019-05-26T00:55:03.650Z,100.3
2019-05-26T00:56:03.232Z,100.1
2019-05-26T00:57:02.911Z,100.3
2019-05-26T00:58:02.678Z,100.5
2019-05-26T00:59:03.306Z,100.3
2019-05-26T01:00:02.920Z,98.9
2019-05-26T01:01:03.541Z,99.6
2019-05-26T01:02:03.053Z,98.9
2019-05-26T01:03:02.865Z,98.9
2019-05-26T01:04:03.370Z,99.6
2019-05-26T01:05:03.287Z,101.5
2019-05-26T01:06:02.745Z,102.2
2019-05-26T01:07:03.405Z,101
2019-05-26T01:08:07.277Z,100.1
2019-05-26T01:09:02.668Z,99.4
2019-05-26T01:10:03.725Z,97.5
2019-05-26T01:11:03.085Z,99.8
2019-05-26T01:12:02.649Z,98.4
2019-05-26T01:13:03.123Z,98.7
2019-05-26T01:14:02.688Z,99.1
2019-05-26T01:15:02.835Z,98.2
2019-05-26T01:16:03.101Z,100.1
2019-05-26T01:17:03.430Z,101
2019-05-26T01:18:04.278Z,101
2019-05-26T01:19:02.665Z,99.8
2019-05-26T01:20:03.327Z,99.4
2019-05-26T01:21:02.740Z,99.6
2019-05-26T01:22:02.984Z,100.5
2019-05-26T01:23:03.285Z,101.9
2019-05-26T01:24:02.820Z,101.9
2019-05-26T01:25:03.366Z,100.3
2019-05-26T01:26:03.188Z,101.2
2019-05-26T01:27:02.857Z,103.6
2019-05-26T01:28:03.594Z,103.3
2019-05-26T01:29:03.614Z,103.1
2019-05-26T01:30:02.855Z,104.5
2019-05-26T01:31:03.403Z,102.9
2019-05-26T01:32:02.936Z,104
2019-05-26T01:33:02.579Z,103.1
2019-05-26T01:34:02.931Z,102.6
2019-05-26T01:35:03.020Z,104.3
2019-05-26T01:36:03.390Z,105.7
2019-05-26T01:37:03.130Z,106.1
2019-05-26T01:38:02.913Z,105.2
2019-05-26T01:39:02.714Z,104.7
2019-05-26T01:40:02.754Z,103.6
2019-05-26T01:41:02.623Z,103.8
2019-05-26T01:42:03.357Z,102.9
2019-05-26T01:43:02.507Z,103.8
2019-05-26T01:44:03.480Z,103.6
2019-05-26T01:45:03.084Z,103.6
2019-05-26T01:46:02.593Z,103.3
2019-05-26T01:47:03.326Z,102.9
2019-05-26T01:48:03.034Z,102.6
2019-05-26T01:49:02.598Z,101.5
2019-05-26T01:50:03.420Z,101.2
2019-05-26T01:51:03.054Z,102.2
2019-05-26T01:52:03.084Z,101.5
2019-05-26T01:53:03.052Z,102.2
2019-05-26T01:54:02.641Z,101.7
2019-05-26T01:55:03.431Z,101.7
2019-05-26T01:56:02.835Z,102.6
2019-05-26T01:57:03.460Z,102.2
2019-05-26T01:58:03.142Z,102.6
2019-05-26T01:59:02.994Z,103.6
2019-05-26T02:00:02.557Z,103.6
2019-05-26T02:01:03.348Z,102.4
2019-05-26T02:02:03.112Z,102.9
2019-05-26T02:03:03.429Z,101.9
2019-05-26T02:04:03.057Z,101.5
2019-05-26T02:05:02.647Z,100.5
2019-05-26T02:06:03.356Z,100.1
2019-05-26T02:07:03.064Z,100.1
2019-05-26T02:08:02.526Z,100.1
2019-05-26T02:09:03.337Z,99.6
2019-05-26T02:10:03.051Z,100.1
2019-05-26T02:11:03.300Z,98
2019-05-26T02:12:03.576Z,98.4
2019-05-26T02:13:02.835Z,98.4
2019-05-26T02:14:02.385Z,98.4
2019-05-26T02:15:03.221Z,98
2019-05-26T02:16:02.907Z,97.3
2019-05-26T02:17:03.229Z,97.7
2019-05-26T02:18:03.124Z,98.2
2019-05-26T02:19:02.700Z,99.6
2019-05-26T02:20:03.409Z,99.1
2019-05-26T02:21:01.854Z,98
2019-05-26T02:22:03.597Z,100.5
2019-05-26T02:23:03.291Z,99.6
2019-05-26T02:24:03.043Z,100.1
2019-05-26T02:25:03.562Z,100.5
2019-05-26T02:26:03.269Z,99.4
2019-05-26T02:27:03.405Z,97.5
2019-05-26T02:28:03.150Z,97
2019-05-26T02:29:02.712Z,96.3
2019-05-26T02:30:02.907Z,95.2
2019-05-26T02:31:03.008Z,95.4
2019-05-26T02:32:02.567Z,94
2019-05-26T02:33:03.434Z,93.5
2019-05-26T02:34:02.690Z,93.5
2019-05-26T02:35:03.335Z,92.8
2019-05-26T02:36:03.232Z,91.2
2019-05-26T02:37:02.800Z,92.1
2019-05-26T02:38:03.573Z,92.6
2019-05-26T02:39:03.944Z,92.6
2019-05-26T02:40:03.560Z,93.3
2019-05-26T02:41:02.865Z,93.1
2019-05-26T02:42:02.865Z,94.5
2019-05-26T02:43:03.386Z,93.8
2019-05-26T02:44:02.912Z,94.5
2019-05-26T02:45:02.805Z,94.7
2019-05-26T02:46:03.064Z,95.6
2019-05-26T02:47:02.640Z,96.1
2019-05-26T02:48:03.232Z,98
2019-05-26T02:49:02.980Z,98.2
2019-05-26T02:50:02.767Z,97.5
2019-05-26T02:51:03.552Z,97.3
2019-05-26T02:52:02.877Z,98
2019-05-26T02:53:02.570Z,98
2019-05-26T02:54:03.146Z,99.1
2019-05-26T02:55:03.141Z,100.5
2019-05-26T02:56:02.692Z,100.5
2019-05-26T02:57:03.355Z,101.2
2019-05-26T02:58:02.961Z,101.7
2019-05-26T02:59:02.623Z,101.2
2019-05-26T03:00:03.113Z,101.7
2019-05-26T03:01:02.843Z,102.9
2019-05-26T03:02:05.279Z,102.2
2019-05-26T03:03:03.115Z,102.6
2019-05-26T03:04:02.704Z,103.1
2019-05-26T03:05:03.465Z,102.6
2019-05-26T03:06:02.880Z,102.6
2019-05-26T03:07:02.606Z,102.6
2019-05-26T03:08:03.074Z,101
2019-05-26T03:09:24.459Z,101.2
2019-05-26T03:11:02.872Z,101.7
2019-05-26T03:12:03.395Z,101.7
2019-05-26T03:13:02.821Z,101
2019-05-26T03:14:03.487Z,99.1
2019-05-26T03:15:03.056Z,101
2019-05-26T03:16:03.050Z,101.7
2019-05-26T03:17:02.580Z,100.8
2019-05-26T03:18:03.028Z,101.5
2019-05-26T03:19:02.900Z,99.8
2019-05-26T03:20:03.392Z,100.1
2019-05-26T03:21:03.075Z,101.5
2019-05-26T03:22:02.645Z,98.4
2019-05-26T03:23:03.074Z,98.4
2019-05-26T03:24:02.501Z,98.2
2019-05-26T03:25:03.460Z,98.4
2019-05-26T03:26:03.320Z,98.7
2019-05-26T03:27:02.766Z,98.9
2019-05-26T03:28:03.490Z,98.4
2019-05-26T03:29:03.250Z,99.4
2019-05-26T03:30:03.482Z,98.9
2019-05-26T03:31:03.094Z,99.4
2019-05-26T03:32:03.016Z,98.9
2019-05-26T03:33:02.552Z,99.1
2019-05-26T03:34:03.793Z,101.2
2019-05-26T03:35:03.086Z,100.3
2019-05-26T03:36:03.330Z,100.8
2019-05-26T03:37:03.084Z,100.1
2019-05-26T03:38:02.429Z,99.8
2019-05-26T03:39:03.574Z,99.4
2019-05-26T03:40:03.116Z,100.1
2019-05-26T03:41:02.690Z,99.8
2019-05-26T03:42:03.565Z,99.1
2019-05-26T03:43:02.846Z,100.1
2019-05-26T03:44:03.270Z,99.4
2019-05-26T03:45:03.411Z,98
2019-05-26T03:46:02.676Z,97.5
2019-05-26T03:47:03.498Z,97.3
2019-05-26T03:48:03.115Z,95.6
2019-05-26T03:49:02.863Z,95.2
2019-05-26T03:50:03.474Z,95.6
2019-05-26T03:51:02.956Z,94.5
2019-05-26T03:52:02.902Z,94.9
2019-05-26T03:53:03.346Z,96.1
2019-05-26T03:54:02.938Z,95.4
2019-05-26T03:55:03.619Z,93.8
2019-05-26T03:56:03.402Z,93.3
2019-05-26T03:57:02.999Z,93.5
2019-05-26T03:58:02.573Z,91.9
2019-05-26T03:59:03.073Z,91.7
2019-05-26T04:00:02.796Z,92.8
2019-05-26T04:01:03.579Z,92.1
2019-05-26T04:02:02.906Z,92.4
2019-05-26T04:03:03.123Z,92.6
2019-05-26T04:04:02.575Z,91.4
2019-05-26T04:05:03.544Z,92.8
2019-05-26T04:06:02.960Z,92.4
2019-05-26T04:07:03.901Z,91.7
2019-05-26T04:08:05.901Z,92.4
2019-05-26T04:09:02.780Z,93.5
2019-05-26T04:10:06.883Z,95.9
2019-05-26T04:11:02.945Z,94.7
2019-05-26T04:12:03.480Z,94
2019-05-26T04:13:03.258Z,94.2
2019-05-26T04:14:02.792Z,95.4
2019-05-26T04:15:03.480Z,95.2
2019-05-26T04:16:03.255Z,93.5
2019-05-26T04:17:02.832Z,94.7
2019-05-26T04:18:03.544Z,93.1
2019-05-26T04:19:03.134Z,92.8
2019-05-26T04:20:02.817Z,92.1
2019-05-26T04:21:03.350Z,91.2
2019-05-26T04:22:02.963Z,91.4
2019-05-26T04:23:02.694Z,91
2019-05-26T04:24:03.255Z,90.7
2019-05-26T04:25:03.182Z,90.7
2019-05-26T04:26:03.446Z,90.7
2019-05-26T04:27:03.472Z,91.4
2019-05-26T04:28:02.927Z,92.4
2019-05-26T04:29:03.493Z,92.6
2019-05-26T04:30:03.075Z,93.8
2019-05-26T04:31:02.742Z,92.8
2019-05-26T04:32:03.027Z,93.5
2019-05-26T04:33:02.819Z,92.1
2019-05-26T04:34:02.685Z,91
2019-05-26T04:35:03.430Z,90.5
2019-05-26T04:36:02.741Z,90.3
2019-05-26T04:37:02.407Z,89.1
2019-05-26T04:38:03.241Z,89.6
2019-05-26T04:39:02.679Z,89.8
2019-05-26T04:40:14.496Z,89.6
2019-05-26T04:42:02.884Z,88.9
2019-05-26T04:43:03.551Z,89.1
2019-05-26T04:44:03.131Z,90.7
2019-05-26T04:45:02.821Z,91.7
2019-05-26T04:46:03.431Z,91.7
2019-05-26T04:47:03.119Z,91.2
2019-05-26T04:48:03.586Z,91
2019-05-26T04:49:02.950Z,93.3
2019-05-26T04:50:02.680Z,93.5
2019-05-26T04:51:03.463Z,94
2019-05-26T04:52:03.295Z,92.8
2019-05-26T04:53:07.753Z,91
2019-05-26T04:54:03.348Z,90.7
2019-05-26T04:55:03.145Z,90.7
2019-05-26T04:56:02.633Z,91.2
2019-05-26T04:57:03.263Z,90.5
2019-05-26T04:58:03.212Z,91.9
2019-05-26T04:59:02.677Z,92.1
2019-05-26T05:00:03.593Z,90.5
2019-05-26T05:01:02.880Z,90.3
2019-05-26T05:02:02.743Z,89.3
2019-05-26T05:03:03.369Z,88.6
2019-05-26T05:04:02.991Z,89.6
2019-05-26T05:05:03.526Z,89.1
2019-05-26T05:06:03.239Z,91
2019-05-26T05:07:03.443Z,92.4
2019-05-26T05:08:03.241Z,93.1
2019-05-26T05:09:02.978Z,93.8
2019-05-26T05:10:03.137Z,93.3
2019-05-26T05:11:02.900Z,93.5
2019-05-26T05:12:02.616Z,94.9
2019-05-26T05:13:03.032Z,95.4
2019-05-26T05:14:02.778Z,94.9
2019-05-26T05:15:02.914Z,93.8
2019-05-26T05:16:02.910Z,94.5
2019-05-26T05:17:03.316Z,93.3
2019-05-26T05:18:03.086Z,94.2
2019-05-26T05:19:02.740Z,94.7
2019-05-26T05:20:03.311Z,96.3
2019-05-26T05:21:02.929Z,96.6
2019-05-26T05:22:02.677Z,96.6
2019-05-26T05:23:03.406Z,97
2019-05-26T05:24:03.086Z,97.3
2019-05-26T05:25:02.643Z,98.7
2019-05-26T05:26:03.118Z,97.7
2019-05-26T05:27:02.852Z,96.3
2019-05-26T05:28:03.542Z,95.6
2019-05-26T05:29:03.234Z,95.2
2019-05-26T05:30:03.179Z,95.2
2019-05-26T05:31:03.330Z,96.8
2019-05-26T05:32:03.156Z,96.3
2019-05-26T05:33:02.483Z,98.2
2019-05-26T05:34:03.499Z,96.6
2019-05-26T05:35:02.916Z,96.6
2019-05-26T05:36:02.895Z,98.4
2019-05-26T05:37:03.477Z,99.6
2019-05-26T05:38:02.949Z,100.3
2019-05-26T05:39:02.630Z,100.3
2019-05-26T05:40:03.266Z,99.4
2019-05-26T05:41:03.038Z,101
2019-05-26T05:42:02.879Z,101
2019-05-26T05:43:03.362Z,100.8
2019-05-26T05:44:02.846Z,100.1
2019-05-26T05:45:02.561Z,100.3
2019-05-26T05:46:03.107Z,100.3
2019-05-26T05:47:03.105Z,101
2019-05-26T05:48:02.654Z,101.5
2019-05-26T05:49:03.460Z,99.6
2019-05-26T05:50:02.947Z,99.1
2019-05-26T05:51:02.459Z,100.1
2019-05-26T05:52:03.027Z,101.5
2019-05-26T05:53:02.472Z,101.9
2019-05-26T05:54:03.388Z,101.9
2019-05-26T05:55:02.903Z,102.4
2019-05-26T05:56:02.709Z,102.6
2019-05-26T05:57:02.950Z,104.3
2019-05-26T05:58:02.567Z,103.8
2019-05-26T05:59:03.180Z,103.8
2019-05-26T06:00:03.206Z,104
2019-05-26T06:01:02.549Z,104.3
2019-05-26T06:02:03.285Z,106.6
2019-05-26T06:03:02.632Z,106.4
2019-05-26T06:04:02.799Z,105.9
2019-05-26T06:05:03.110Z,105.2
2019-05-26T06:06:02.688Z,105.2
2019-05-26T06:07:03.876Z,104.3
2019-05-26T06:08:03.157Z,104
2019-05-26T06:09:02.566Z,103.6
2019-05-26T06:10:03.190Z,102.2
2019-05-26T06:11:17.608Z,101.7
2019-05-26T06:13:02.584Z,99.1
2019-05-26T06:14:03.540Z,98.7
2019-05-26T06:15:03.186Z,98.4
2019-05-26T06:16:03.327Z,98.2
2019-05-26T06:17:02.935Z,98
2019-05-26T06:18:02.779Z,99.4
2019-05-26T06:19:03.212Z,99.1
2019-05-26T06:20:02.950Z,98.9
2019-05-26T06:21:02.924Z,99.8
2019-05-26T06:22:02.695Z,100.1
2019-05-26T06:23:02.505Z,100.1
2019-05-26T06:24:03.184Z,100.3
2019-05-26T06:25:03.109Z,98.9
2019-05-26T06:26:02.670Z,99.6
2019-05-26T06:27:03.283Z,101.5
2019-05-26T06:28:02.796Z,101.2
2019-05-26T06:29:03.272Z,101
2019-05-26T06:30:02.849Z,100.5
2019-05-26T06:31:02.802Z,99.8
2019-05-26T06:32:04.624Z,100.8
2019-05-26T06:33:02.628Z,100.3
2019-05-26T06:34:02.941Z,101.5
2019-05-26T06:35:03.455Z,102.4
2019-05-26T06:36:02.702Z,100.5
2019-05-26T06:37:03.316Z,100.5
2019-05-26T06:38:03.236Z,100.5
2019-05-26T06:39:02.807Z,100.5
2019-05-26T06:40:03.366Z,101
2019-05-26T06:41:02.706Z,101.2
2019-05-26T06:42:03.484Z,100.8
2019-05-26T06:43:02.923Z,99.8
2019-05-26T06:44:02.711Z,101
2019-05-26T06:45:03.302Z,99.8
2019-05-26T06:46:02.831Z,99.8
2019-05-26T06:47:02.635Z,99.1
2019-05-26T06:48:02.968Z,99.8
2019-05-26T06:49:02.903Z,100.8
2019-05-26T06:50:03.126Z,101.2
2019-05-26T06:51:03.252Z,100.8
2019-05-26T06:52:02.719Z,101.7
2019-05-26T06:53:03.587Z,101.5
2019-05-26T06:54:02.939Z,102.2
2019-05-26T06:55:02.546Z,102.2
2019-05-26T06:56:03.189Z,102.2
2019-05-26T06:57:02.965Z,101
2019-05-26T06:58:02.797Z,101.2
2019-05-26T06:59:03.508Z,101.5
2019-05-26T07:00:03.061Z,101
2019-05-26T07:01:03.909Z,101.2
2019-05-26T07:02:03.440Z,99.8
2019-05-26T07:03:03.329Z,100.1
2019-05-26T07:04:03.449Z,99.8
2019-05-26T07:05:03.082Z,101
2019-05-26T07:06:02.638Z,101
2019-05-26T07:07:03.270Z,101.2
2019-05-26T07:08:02.630Z,101.2
2019-05-26T07:09:03.530Z,99.8
2019-05-26T07:10:02.908Z,100.3
2019-05-26T07:11:03.282Z,100.1
2019-05-26T07:12:02.999Z,100.3
2019-05-26T07:13:02.664Z,101
2019-05-26T07:14:03.255Z,102.4
2019-05-26T07:15:03.251Z,102.4
2019-05-26T07:16:02.501Z,102.6
2019-05-26T07:17:03.288Z,102.4
2019-05-26T07:18:02.596Z,101.5
2019-05-26T07:19:03.277Z,101.5
2019-05-26T07:20:03.139Z,99.8
2019-05-26T07:21:03.466Z,99.6
2019-05-26T07:22:03.296Z,99.6
2019-05-26T07:23:06.661Z,99.1
2019-05-26T07:24:02.680Z,99.1
2019-05-26T07:25:03.488Z,100.3
2019-05-26T07:26:02.799Z,99.8
2019-05-26T07:27:02.694Z,98.7
2019-05-26T07:28:04.407Z,98.9
2019-05-26T07:29:02.983Z,99.8
2019-05-26T07:30:03.662Z,100.5
2019-05-26T07:31:03.127Z,99.8
2019-05-26T07:32:02.695Z,99.4
2019-05-26T07:33:02.764Z,99.1
2019-05-26T07:34:03.291Z,99.8
2019-05-26T07:35:02.751Z,99.4
2019-05-26T07:36:03.271Z,99.1
2019-05-26T07:37:02.742Z,98
2019-05-26T07:38:03.412Z,96.8
2019-05-26T07:39:02.963Z,97.5
2019-05-26T07:40:02.981Z,97
2019-05-26T07:41:03.641Z,95.2
2019-05-26T07:42:11.581Z,95.4
2019-05-26T07:43:02.626Z,95.2
2019-05-26T07:44:03.226Z,94.5
2019-05-26T07:45:02.968Z,96.8
2019-05-26T07:46:02.760Z,96.1
2019-05-26T07:47:03.125Z,96.3
2019-05-26T07:48:02.999Z,95.2
2019-05-26T07:49:02.460Z,94.5
2019-05-26T07:50:03.640Z,95.4
2019-05-26T07:51:02.827Z,95.2
2019-05-26T07:52:03.235Z,93.8
2019-05-26T07:53:03.246Z,92.6
2019-05-26T07:54:03.953Z,92.4
2019-05-26T07:55:03.761Z,93.3
2019-05-26T07:56:03.316Z,93.8
2019-05-26T07:57:02.843Z,94.2
2019-05-26T07:58:02.791Z,94.7
2019-05-26T07:59:03.293Z,94
2019-05-26T08:00:02.976Z,95.4
2019-05-26T08:01:03.434Z,95.2
2019-05-26T08:02:03.114Z,95.4
2019-05-26T08:03:03.519Z,96.1
2019-05-26T08:04:03.043Z,96.6
2019-05-26T08:05:03.035Z,97
2019-05-26T08:06:02.746Z,95.9
2019-05-26T08:07:03.192Z,96.3
2019-05-26T08:08:13.937Z,98.2
2019-05-26T08:09:03.305Z,98.2
2019-05-26T08:10:03.273Z,98.4
2019-05-26T08:11:02.724Z,99.8
2019-05-26T08:12:03.046Z,101.9
2019-05-26T08:13:02.972Z,101.7
2019-05-26T08:14:02.719Z,101.7
2019-05-26T08:15:02.781Z,101.7
2019-05-26T08:16:02.743Z,102.9
2019-05-26T08:17:02.702Z,103.3
2019-05-26T08:18:03.288Z,102.4
2019-05-26T08:19:02.853Z,103.1
2019-05-26T08:20:03.489Z,104
2019-05-26T08:21:03.154Z,103.6
2019-05-26T08:22:02.566Z,102.9
2019-05-26T08:23:03.554Z,102.9
2019-05-26T08:24:03.069Z,102.4
2019-05-26T08:25:02.852Z,101
2019-05-26T08:26:03.476Z,101.7
2019-05-26T08:27:02.962Z,102.6
2019-05-26T08:28:02.784Z,103.3
2019-05-26T08:29:03.481Z,101.7
2019-05-26T08:30:03.070Z,101.5
2019-05-26T08:31:02.644Z,102.2
2019-05-26T08:32:03.138Z,102.2
2019-05-26T08:33:02.751Z,102.6
2019-05-26T08:34:03.204Z,102.4
2019-05-26T08:35:03.158Z,102.9
2019-05-26T08:36:02.769Z,103.6
2019-05-26T08:37:03.356Z,103.6
2019-05-26T08:38:03.009Z,103.6
2019-05-26T08:39:03.464Z,102.6
2019-05-26T08:40:03.601Z,102.9
2019-05-26T08:41:03.080Z,103.6
2019-05-26T08:42:02.467Z,103.3
2019-05-26T08:43:03.245Z,104
2019-05-26T08:44:02.891Z,104
2019-05-26T08:45:03.557Z,103.6
2019-05-26T08:46:02.998Z,104.3
2019-05-26T08:47:03.556Z,105
2019-05-26T08:48:03.538Z,105.7
2019-05-26T08:49:02.810Z,105.7
2019-05-26T08:50:03.706Z,104.3
2019-05-26T08:51:03.188Z,105
2019-05-26T08:52:02.824Z,104.5
2019-05-26T08:53:03.459Z,106.4
2019-05-26T08:54:03.030Z,107.3
2019-05-26T08:55:02.631Z,106.6
2019-05-26T08:56:03.214Z,106.1
2019-05-26T08:57:02.823Z,104.7
2019-05-26T08:58:03.486Z,104.5
2019-05-26T08:59:02.678Z,104.7
2019-05-26T09:00:02.782Z,103.8
2019-05-26T09:01:03.218Z,103.8
2019-05-26T09:02:03.031Z,102.2
2019-05-26T09:03:02.612Z,101.9
2019-05-26T09:04:03.213Z,101
2019-05-26T09:05:03.060Z,100.3
2019-05-26T09:06:02.623Z,100.1
2019-05-26T09:07:03.222Z,100.5
2019-05-26T09:08:02.751Z,98.9
2019-05-26T09:09:03.409Z,100.3
2019-05-26T09:10:02.959Z,100.1
2019-05-26T09:11:03.391Z,101
2019-05-26T09:12:03.628Z,100.1
2019-05-26T09:13:02.789Z,100.1
2019-05-26T09:14:03.435Z,99.4
2019-05-26T09:15:03.255Z,100.1
2019-05-26T09:16:02.562Z,99.6
2019-05-26T09:17:03.223Z,99.1
2019-05-26T09:18:03.464Z,100.1
2019-05-26T09:19:02.625Z,98.7
2019-05-26T09:20:03.082Z,97.5
2019-05-26T09:21:02.775Z,97
2019-05-26T09:22:03.151Z,97.5
2019-05-26T09:23:02.995Z,98.2
2019-05-26T09:24:03.540Z,98.4
2019-05-26T09:25:03.313Z,98
2019-05-26T09:26:02.786Z,97.3
2019-05-26T09:27:03.561Z,95.9
2019-05-26T09:28:02.809Z,95.9
2019-05-26T09:29:03.205Z,96.1
2019-05-26T09:30:03.115Z,95.9
2019-05-26T09:31:02.673Z,95.6
2019-05-26T09:32:03.422Z,96.1
2019-05-26T09:33:02.454Z,96.3
2019-05-26T09:34:02.786Z,95.4
2019-05-26T09:35:02.946Z,96.6
2019-05-26T09:36:03.413Z,96.8
2019-05-26T09:37:03.024Z,97
2019-05-26T09:38:02.787Z,97.7
2019-05-26T09:39:03.386Z,98
2019-05-26T09:40:02.943Z,97.5
2019-05-26T09:41:03.628Z,98
2019-05-26T09:42:03.010Z,98.9
2019-05-26T09:43:17.060Z,98.9
2019-05-26T09:45:02.989Z,99.1
2019-05-26T09:46:03.533Z,98
2019-05-26T09:47:03.152Z,98.4
2019-05-26T09:48:03.517Z,98.4
2019-05-26T09:49:03.016Z,98.9
2019-05-26T09:50:03.220Z,99.1
2019-05-26T09:51:02.591Z,99.4
2019-05-26T09:52:03.272Z,101
2019-05-26T09:53:02.961Z,101.2
2019-05-26T09:54:03.582Z,99.8
2019-05-26T09:55:03.150Z,99.1
2019-05-26T09:56:02.918Z,100.5
2019-05-26T09:57:02.616Z,100.3
2019-05-26T09:58:03.047Z,99.6
2019-05-26T09:59:02.570Z,100.5
2019-05-26T10:00:03.189Z,99.6
2019-05-26T10:01:02.822Z,98.9
2019-05-26T10:02:03.433Z,100.5
2019-05-26T10:03:03.184Z,100.1
2019-05-26T10:04:02.652Z,99.8
2019-05-26T10:05:03.394Z,99.6
2019-05-26T10:06:02.595Z,100.5
2019-05-26T10:07:03.348Z,100.1
2019-05-26T10:08:02.776Z,99.6
2019-05-26T10:09:03.627Z,98.7
2019-05-26T10:10:03.436Z,98.4
2019-05-26T10:11:02.692Z,98.2
2019-05-26T10:12:03.195Z,98.4
2019-05-26T10:13:03.034Z,99.4
2019-05-26T10:14:03.340Z,98.4
2019-05-26T10:15:03.235Z,99.1
2019-05-26T10:16:03.591Z,98.7
2019-05-26T10:17:03.384Z,99.4
2019-05-26T10:18:02.849Z,97.5
2019-05-26T10:19:03.557Z,98.2
2019-05-26T10:20:02.966Z,100.1
2019-05-26T10:21:02.526Z,99.6
2019-05-26T10:22:03.365Z,100.8
2019-05-26T10:23:02.815Z,101.9
2019-05-26T10:24:03.607Z,102.4
2019-05-26T10:25:03.178Z,103.3
2019-05-26T10:26:02.619Z,103.6
2019-05-26T10:27:02.659Z,104.7
2019-05-26T10:28:03.482Z,103.8
2019-05-26T10:29:02.874Z,104.7
2019-05-26T10:30:03.469Z,105.9
2019-05-26T10:31:02.898Z,105.4
2019-05-26T10:32:03.535Z,104.3
2019-05-26T10:33:03.263Z,102.2
2019-05-26T10:34:03.128Z,102.6
2019-05-26T10:35:03.465Z,101.5
2019-05-26T10:36:02.925Z,101.2
2019-05-26T10:37:03.510Z,101
2019-05-26T10:38:03.084Z,100.3
2019-05-26T10:39:03.711Z,100.5
2019-05-26T10:40:03.580Z,102.4
2019-05-26T10:41:02.806Z,102.6
2019-05-26T10:42:02.649Z,102.2
2019-05-26T10:43:03.265Z,101.7
2019-05-26T10:44:02.693Z,101
2019-05-26T10:45:03.645Z,100.5
2019-05-26T10:46:03.422Z,101.7
2019-05-26T10:47:03.007Z,101
2019-05-26T10:48:02.722Z,100.8
2019-05-26T10:49:03.294Z,100.8
2019-05-26T10:50:03.114Z,101.5
2019-05-26T10:51:07.210Z,100.5
2019-05-26T10:52:03.159Z,100.1
2019-05-26T10:53:02.703Z,99.4
2019-05-26T10:54:02.609Z,100.1
2019-05-26T10:55:03.009Z,100.8
2019-05-26T10:56:02.963Z,100.1
2019-05-26T10:57:03.396Z,101.5
2019-05-26T10:58:03.432Z,102.2
2019-05-26T10:59:02.880Z,103.1
2019-05-26T11:00:03.657Z,104
2019-05-26T11:01:02.971Z,104.7
2019-05-26T11:02:03.440Z,103.6
2019-05-26T11:03:04.327Z,103.1
2019-05-26T11:04:03.482Z,103.6
2019-05-26T11:05:02.809Z,103.3
2019-05-26T11:06:02.743Z,101.5
2019-05-26T11:07:02.651Z,101.7
2019-05-26T11:08:02.467Z,101.7
2019-05-26T11:09:03.551Z,101.7
2019-05-26T11:10:03.110Z,101.5
2019-05-26T11:11:02.730Z,100.3
2019-05-26T11:12:03.170Z,99.6
2019-05-26T11:13:03.538Z,98.9
2019-05-26T11:14:04.015Z,100.1
2019-05-26T11:15:03.497Z,99.6
2019-05-26T11:16:03.137Z,99.4
2019-05-26T11:17:02.747Z,100.3
2019-05-26T11:18:03.380Z,102.9
2019-05-26T11:19:03.041Z,103.3
2019-05-26T11:20:02.854Z,105
2019-05-26T11:21:03.135Z,104.5
2019-05-26T11:22:02.964Z,102.9
2019-05-26T11:23:02.649Z,101
2019-05-26T11:24:03.582Z,100.3
2019-05-26T11:25:03.286Z,100.5
2019-05-26T11:26:02.662Z,99.8
2019-05-26T11:27:15.280Z,99.4
2019-05-26T11:29:03.377Z,99.8
2019-05-26T11:30:03.017Z,99.1
2019-05-26T11:31:03.405Z,100.3
2019-05-26T11:32:02.972Z,100.5
2019-05-26T11:33:03.481Z,102.2
2019-05-26T11:34:03.020Z,103.1
2019-05-26T11:35:02.765Z,102.4
2019-05-26T11:36:03.331Z,101.7
2019-05-26T11:37:02.768Z,103.1
2019-05-26T11:38:03.495Z,105.2
2019-05-26T11:39:03.066Z,104.7
2019-05-26T11:40:03.604Z,103.3
2019-05-26T11:41:03.236Z,101.9
2019-05-26T11:42:14.989Z,101.5
2019-05-26T11:43:17.824Z,101.7
2019-05-26T11:44:18.757Z,101.9
2019-05-26T11:46:03.325Z,102.9
2019-05-26T11:47:02.872Z,102.6
2019-05-26T11:48:03.625Z,102.4
2019-05-26T11:49:02.822Z,101.5
2019-05-26T11:50:02.624Z,99.6
2019-05-26T11:51:03.286Z,99.8
2019-05-26T11:52:02.871Z,99.8
2019-05-26T11:53:03.397Z,100.1
2019-05-26T11:54:03.136Z,100.3
2019-05-26T11:55:02.801Z,99.6
2019-05-26T11:56:03.489Z,99.6
2019-05-26T11:57:02.988Z,98.7
2019-05-26T11:58:03.545Z,98.2
2019-05-26T11:59:03.221Z,96.8
2019-05-26T12:00:03.792Z,96.6
2019-05-26T12:01:02.748Z,97.5
2019-05-26T12:02:03.406Z,98.2
2019-05-26T12:03:03.185Z,99.4
2019-05-26T12:04:02.621Z,101.5
2019-05-26T12:05:03.025Z,101
2019-05-26T12:06:02.990Z,102.6
2019-05-26T12:07:04.895Z,101.7
2019-05-26T12:08:03.209Z,102.4
2019-05-26T12:09:03.041Z,102.6
2019-05-26T12:10:03.617Z,103.3
2019-05-26T12:11:03.220Z,103.3
2019-05-26T12:12:02.809Z,102.4
2019-05-26T12:13:03.188Z,102.6
2019-05-26T12:14:03.269Z,103.3
2019-05-26T12:15:02.766Z,102.4
2019-05-26T12:16:03.196Z,101.5
2019-05-26T12:17:02.975Z,100.1
2019-05-26T12:18:02.905Z,98.9
2019-05-26T12:19:02.546Z,98.7
2019-05-26T12:20:06.036Z,96.1
2019-05-26T12:21:03.600Z,97
2019-05-26T12:22:03.247Z,96.8
2019-05-26T12:23:03.492Z,96.8
2019-05-26T12:24:03.004Z,98.2
2019-05-26T12:25:02.647Z,97.7
2019-05-26T12:26:03.387Z,98.2
2019-05-26T12:27:03.002Z,97.7
2019-05-26T12:28:03.347Z,98.7
2019-05-26T12:29:02.872Z,98.9
2019-05-26T12:30:03.433Z,98.4
2019-05-26T12:31:03.314Z,96.6
2019-05-26T12:32:02.986Z,96.8
2019-05-26T12:33:02.644Z,95.9
2019-05-26T12:34:03.201Z,95.9
2019-05-26T12:35:02.691Z,96.1
2019-05-26T12:36:03.333Z,96.1
2019-05-26T12:37:02.959Z,94.7
2019-05-26T12:38:02.676Z,93.1
2019-05-26T12:39:03.234Z,93.3
2019-05-26T12:40:02.970Z,94.2
2019-05-26T12:41:03.174Z,95.4
2019-05-26T12:42:02.590Z,94.7
2019-05-26T12:43:03.398Z,94.9
2019-05-26T12:44:03.051Z,96.3
2019-05-26T12:45:03.470Z,96.3
2019-05-26T12:46:02.751Z,95.2
2019-05-26T12:47:03.477Z,95.4
2019-05-26T12:48:03.077Z,94.9
2019-05-26T12:49:02.771Z,95.2
2019-05-26T12:50:03.640Z,95.9
2019-05-26T12:51:03.048Z,96.1
2019-05-26T12:52:02.640Z,95.9
2019-05-26T12:53:03.155Z,95.9
2019-05-26T12:54:03.587Z,95.2
2019-05-26T12:55:03.321Z,95.2
2019-05-26T12:56:03.130Z,94.2
2019-05-26T12:57:03.377Z,95.6
2019-05-26T12:58:03.266Z,94.9
2019-05-26T12:59:02.928Z,96.1
2019-05-26T13:00:03.141Z,97.3
2019-05-26T13:01:02.887Z,96.3
2019-05-26T13:02:02.510Z,96.1
2019-05-26T13:03:03.689Z,95.4
2019-05-26T13:04:03.061Z,93.5
2019-05-26T13:05:03.513Z,94.7
2019-05-26T13:06:03.182Z,94.2
2019-05-26T13:07:03.123Z,94.2
2019-05-26T13:08:02.717Z,94.5
2019-05-26T13:09:03.329Z,94.5
2019-05-26T13:10:02.992Z,94.5
2019-05-26T13:11:02.639Z,95.6
2019-05-26T13:12:03.171Z,95.6
2019-05-26T13:13:02.578Z,96.1
2019-05-26T13:14:03.496Z,94.5
2019-05-26T13:15:06.845Z,95.2
2019-05-26T13:16:02.797Z,95.2
2019-05-26T13:17:03.684Z,94.9